createdAt,value
2022-10-20T00:01:02.556Z,95468.16
2022-10-20T00:03:29.511Z,95468.16
2022-10-20T00:06:06.467Z,95478.31
2022-10-20T00:08:33.204Z,95468.91
2022-10-20T00:11:00.088Z,95469.44
2022-10-20T00:13:27.049Z,95465.41
2022-10-20T00:15:55.242Z,95462.47
2022-10-20T00:18:22.827Z,95471.91
2022-10-20T00:20:49.950Z,95468.38
2022-10-20T00:23:16.671Z,95468.09
2022-10-20T00:25:43.499Z,95462.94
2022-10-20T00:28:10.467Z,95466.75
2022-10-20T00:30:37.616Z,95462.19
2022-10-20T00:33:04.784Z,95465.94
2022-10-20T00:35:31.963Z,95458.72
2022-10-20T00:37:59.852Z,95452.81
2022-10-20T00:40:26.538Z,95464.34
2022-10-20T00:42:53.394Z,95453.31
2022-10-20T00:45:21.170Z,95455.19
2022-10-20T00:47:49.465Z,95450.88
2022-10-20T00:50:18.075Z,95447.63
2022-10-20T00:52:46.093Z,95443.56
2022-10-20T00:55:14.618Z,95437.16
2022-10-20T00:57:42.865Z,95448.69
2022-10-20T01:00:10.122Z,95447.88
2022-10-20T01:02:37.036Z,95447.38
2022-10-20T01:05:04.244Z,95449.25
2022-10-20T01:07:35.136Z,95450.88
2022-10-20T01:10:03.679Z,95450.56
2022-10-20T01:12:30.346Z,95448.41
2022-10-20T01:15:07.851Z,95454.25
2022-10-20T01:17:43.706Z,95457.78
2022-10-20T01:20:13.858Z,95447.53
2022-10-20T01:22:58.893Z,95447.84
2022-10-20T01:25:44.499Z,95447.59
2022-10-20T01:28:29.029Z,95457.78
2022-10-20T01:31:00.238Z,95456.38
2022-10-20T01:33:30.015Z,95453.16
2022-10-20T01:36:04.278Z,95453.41
2022-10-20T01:38:43.014Z,95453.06
2022-10-20T01:41:17.410Z,95456.25
2022-10-20T01:43:46.254Z,95458.84
2022-10-20T01:46:14.699Z,95451.63
2022-10-20T01:48:41.934Z,95456.94
2022-10-20T01:51:09.891Z,95459.81
2022-10-20T01:53:36.657Z,95458.97
2022-10-20T01:56:04.121Z,95455.44
2022-10-20T01:58:39.948Z,95462.59
2022-10-20T02:01:30.106Z,95463.66
2022-10-20T02:03:59.515Z,95459.03
2022-10-20T02:06:55.805Z,95470.03
2022-10-20T02:09:27.459Z,95475.09
2022-10-20T02:11:54.149Z,95471.03
2022-10-20T02:14:21.745Z,95472.09
2022-10-20T02:16:55.505Z,95479.00
2022-10-20T02:19:24.911Z,95480.53
2022-10-20T02:21:52.534Z,95475.09
2022-10-20T02:24:22.113Z,95476.94
2022-10-20T02:26:49.700Z,95478.16
2022-10-20T02:29:18.362Z,95477.91
2022-10-20T02:31:45.355Z,95476.22
2022-10-20T02:34:12.350Z,95479.59
2022-10-20T02:36:40.803Z,95485.69
2022-10-20T02:39:08.069Z,95487.56
2022-10-20T02:41:34.900Z,95485.69
2022-10-20T02:44:01.667Z,95483.25
2022-10-20T02:46:28.843Z,95494.13
2022-10-20T02:48:55.620Z,95498.38
2022-10-20T02:51:22.513Z,95494.06
2022-10-20T02:53:49.973Z,95495.69
2022-10-20T02:56:16.862Z,95507.47
2022-10-20T02:58:43.646Z,95502.06
2022-10-20T03:01:10.633Z,95500.09
2022-10-20T03:03:37.301Z,95501.16
2022-10-20T03:06:11.635Z,95498.41
2022-10-20T03:08:38.958Z,95504.81
2022-10-20T03:11:05.785Z,95502.81
2022-10-20T03:13:32.908Z,95498.94
2022-10-20T03:15:59.926Z,95507.78
2022-10-20T03:18:26.626Z,95513.97
2022-10-20T03:20:54.061Z,95513.88
2022-10-20T03:23:20.971Z,95511.69
2022-10-20T03:25:47.927Z,95511.44
2022-10-20T03:28:14.669Z,95517.50
2022-10-20T03:30:41.415Z,95521.53
2022-10-20T03:33:08.134Z,95515.34
2022-10-20T03:35:35.097Z,95521.00
2022-10-20T03:38:01.765Z,95518.84
2022-10-20T03:40:28.522Z,95524.09
2022-10-20T03:42:55.237Z,95522.56
2022-10-20T03:45:21.994Z,95535.72
2022-10-20T03:47:48.818Z,95527.94
2022-10-20T03:50:15.758Z,95535.72
2022-10-20T03:52:42.458Z,95540.25
2022-10-20T03:55:09.634Z,95531.16
2022-10-20T03:57:36.773Z,95539.75
2022-10-20T04:00:03.877Z,95538.16
2022-10-20T04:02:39.694Z,95539.44
2022-10-20T04:05:06.860Z,95545.53
2022-10-20T04:07:33.526Z,95536.69
2022-10-20T04:10:02.407Z,95531.81
2022-10-20T04:12:29.620Z,95535.78
2022-10-20T04:14:56.412Z,95540.81
2022-10-20T04:17:23.547Z,95545.59
2022-10-20T04:19:50.438Z,95538.28
2022-10-20T04:22:17.132Z,95543.47
2022-10-20T04:24:44.090Z,95534.88
2022-10-20T04:27:10.810Z,95538.94
2022-10-20T04:29:37.666Z,95541.53
2022-10-20T04:32:04.850Z,95543.16
2022-10-20T04:34:31.890Z,95545.81
2022-10-20T04:36:58.666Z,95540.47
2022-10-20T04:39:25.753Z,95545.00
2022-10-20T04:41:52.463Z,95542.09
2022-10-20T04:44:19.263Z,95544.13
2022-10-20T04:46:45.978Z,95539.59
2022-10-20T04:49:12.939Z,95546.06
2022-10-20T04:51:39.782Z,95553.28
2022-10-20T04:54:06.635Z,95546.31
2022-10-20T04:56:33.347Z,95556.19
2022-10-20T04:59:00.109Z,95555.94
2022-10-20T05:01:27.856Z,95558.88
2022-10-20T05:03:54.754Z,95567.97
2022-10-20T05:06:25.910Z,95566.91
2022-10-20T05:08:53.490Z,95571.19
2022-10-20T05:11:20.923Z,95570.38
2022-10-20T05:13:48.207Z,95576.47
2022-10-20T05:16:17.368Z,95580.78
2022-10-20T05:18:44.514Z,95575.09
2022-10-20T05:21:12.731Z,95583.34
2022-10-20T05:23:40.062Z,95583.13
2022-10-20T05:26:09.203Z,95592.28
2022-10-20T05:28:36.050Z,95598.47
2022-10-20T05:31:03.753Z,95607.03
2022-10-20T05:33:30.638Z,95609.72
2022-10-20T05:35:57.668Z,95611.09
2022-10-20T05:38:24.588Z,95615.97
2022-10-20T05:40:51.570Z,95617.94
2022-10-20T05:43:18.287Z,95622.47
2022-10-20T05:45:45.017Z,95632.94
2022-10-20T05:48:11.763Z,95638.28
2022-10-20T05:50:38.674Z,95644.69
2022-10-20T05:53:05.472Z,95650.88
2022-10-20T05:55:33.034Z,95645.00
2022-10-20T05:58:00.000Z,95653.31
2022-10-20T06:00:31.050Z,95652.50
2022-10-20T06:02:58.256Z,95658.66
2022-10-20T06:05:25.012Z,95666.69
2022-10-20T06:07:53.149Z,95666.13
2022-10-20T06:10:19.999Z,95671.94
2022-10-20T06:12:47.682Z,95677.53
2022-10-20T06:15:14.390Z,95677.63
2022-10-20T06:17:41.132Z,95682.47
2022-10-20T06:20:07.975Z,95684.69
2022-10-20T06:22:35.300Z,95688.75
2022-10-20T06:25:02.200Z,95692.00
2022-10-20T06:27:29.230Z,95692.25
2022-10-20T06:29:55.969Z,95699.56
2022-10-20T06:32:22.659Z,95692.94
2022-10-20T06:34:49.375Z,95699.66
2022-10-20T06:37:16.169Z,95700.22
2022-10-20T06:39:42.975Z,95697.53
2022-10-20T06:42:12.012Z,95717.56
2022-10-20T06:44:45.016Z,95706.97
2022-10-20T06:47:11.937Z,95707.53
2022-10-20T06:49:38.693Z,95705.69
2022-10-20T06:52:05.470Z,95702.25
2022-10-20T06:54:32.509Z,95703.34
2022-10-20T06:56:59.203Z,95705.28
2022-10-20T06:59:25.951Z,95706.66
2022-10-20T07:01:53.072Z,95712.69
2022-10-20T07:04:20.121Z,95721.38
2022-10-20T07:06:47.326Z,95715.78
2022-10-20T07:09:16.151Z,95716.13
2022-10-20T07:11:43.635Z,95718.81
2022-10-20T07:14:11.758Z,95720.16
2022-10-20T07:16:38.727Z,95724.56
2022-10-20T07:19:05.504Z,95722.94
2022-10-20T07:21:35.977Z,95728.16
2022-10-20T07:24:06.462Z,95723.09
2022-10-20T07:26:34.666Z,95716.31
2022-10-20T07:29:02.943Z,95726.06
2022-10-20T07:31:34.907Z,95724.53
2022-10-20T07:34:13.605Z,95730.72
2022-10-20T07:36:49.983Z,95719.81
2022-10-20T07:39:16.929Z,95736.09
2022-10-20T07:41:47.192Z,95729.38
2022-10-20T07:44:14.611Z,95729.81
2022-10-20T07:46:41.728Z,95728.50
2022-10-20T07:49:42.338Z,95729.63
2022-10-20T07:51:55.678Z,95725.06
2022-10-20T07:54:22.534Z,95721.91
2022-10-20T07:56:49.636Z,95709.41
2022-10-20T07:59:16.424Z,95708.06
2022-10-20T08:01:44.032Z,95709.44
2022-10-20T08:04:11.219Z,95718.78
2022-10-20T08:06:39.065Z,95712.38
2022-10-20T08:09:06.423Z,95713.50
2022-10-20T08:11:33.490Z,95718.16
2022-10-20T08:14:00.180Z,95715.47
2022-10-20T08:16:35.890Z,95714.69
2022-10-20T08:21:43.458Z,95711.59
2022-10-20T08:24:10.584Z,95705.56
2022-10-20T08:26:37.338Z,95708.31
2022-10-20T08:29:04.306Z,95712.88
2022-10-20T08:31:30.979Z,95701.94
2022-10-20T08:33:58.082Z,95703.38
2022-10-20T08:36:25.086Z,95706.09
2022-10-20T08:38:51.850Z,95706.91
2022-10-20T08:41:20.718Z,95701.88
2022-10-20T08:43:48.945Z,95703.50
2022-10-20T08:48:44.454Z,95694.16
2022-10-20T08:51:25.071Z,95700.44
2022-10-20T08:53:53.860Z,95690.84
2022-10-20T08:56:22.910Z,95685.50
2022-10-20T08:58:49.708Z,95692.56
2022-10-20T09:01:24.237Z,95693.69
2022-10-20T09:04:03.901Z,95696.94
2022-10-20T09:06:31.213Z,95688.91
2022-10-20T09:09:10.710Z,95694.09
2022-10-20T09:11:40.486Z,95699.25
2022-10-20T09:14:09.271Z,95696.31
2022-10-20T09:16:55.337Z,95694.44
2022-10-20T09:19:45.849Z,95704.16
2022-10-20T09:22:13.536Z,95697.25
2022-10-20T09:24:42.824Z,95698.13
2022-10-20T09:27:20.479Z,95694.41
2022-10-20T09:29:48.556Z,95704.66
2022-10-20T09:35:22.065Z,95702.34
2022-10-20T09:37:57.852Z,95699.72
2022-10-20T09:40:26.572Z,95693.88
2022-10-20T09:42:55.732Z,95694.41
2022-10-20T09:45:24.280Z,95693.63
2022-10-20T09:47:53.831Z,95698.84
2022-10-20T09:50:26.910Z,95687.25
2022-10-20T09:52:54.015Z,95683.50
2022-10-20T09:55:20.994Z,95678.94
2022-10-20T09:57:47.971Z,95683.25
2022-10-20T10:00:37.125Z,95686.47
2022-10-20T10:03:10.212Z,95672.53
2022-10-20T10:05:37.031Z,95681.69
2022-10-20T10:08:03.784Z,95680.06
2022-10-20T10:10:31.664Z,95679.81
2022-10-20T10:13:03.940Z,95675.53
2022-10-20T10:15:36.729Z,95663.44
2022-10-20T10:18:14.643Z,95663.72
2022-10-20T10:20:42.235Z,95664.28
2022-10-20T10:23:28.579Z,95664.56
2022-10-20T10:25:59.271Z,95666.75
2022-10-20T10:28:37.806Z,95654.88
2022-10-20T10:31:09.472Z,95653.31
2022-10-20T10:33:36.386Z,95656.50
2022-10-20T10:36:04.793Z,95663.50
2022-10-20T10:38:31.529Z,95662.44
2022-10-20T10:41:04.738Z,95656.28
2022-10-20T10:43:46.253Z,95659.78
2022-10-20T10:46:19.356Z,95638.78
2022-10-20T10:48:58.521Z,95645.00
2022-10-20T10:51:39.856Z,95646.63
2022-10-20T10:54:11.622Z,95639.91
2022-10-20T10:56:44.756Z,95634.28
2022-10-20T10:59:18.183Z,95638.28
2022-10-20T11:01:45.277Z,95624.84
2022-10-20T11:04:18.104Z,95631.56
2022-10-20T11:06:48.186Z,95620.00
2022-10-20T11:09:15.991Z,95621.09
2022-10-20T11:12:12.671Z,95628.38
2022-10-20T11:15:05.096Z,95615.75
2022-10-20T11:18:01.150Z,95612.50
2022-10-20T11:20:41.360Z,95613.53
2022-10-20T11:23:08.254Z,95615.72
2022-10-20T11:25:47.375Z,95612.75
2022-10-20T11:28:33.107Z,95610.06
2022-10-20T11:31:00.498Z,95603.88
2022-10-20T11:33:30.752Z,95603.31
2022-10-20T11:36:09.202Z,95601.97
2022-10-20T11:38:37.249Z,95592.25
2022-10-20T11:41:17.358Z,95586.06
2022-10-20T11:43:50.523Z,95594.13
2022-10-20T11:46:32.768Z,95592.50
2022-10-20T11:49:01.837Z,95588.22
2022-10-20T11:51:31.048Z,95584.97
2022-10-20T11:54:16.888Z,95580.38
2022-10-20T11:57:02.896Z,95592.00
2022-10-20T11:59:52.216Z,95583.38
2022-10-20T12:02:22.163Z,95577.97
2022-10-20T12:05:00.005Z,95571.28
2022-10-20T12:07:30.410Z,95580.97
2022-10-20T12:10:12.387Z,95579.34
2022-10-20T12:12:51.308Z,95578.81
2022-10-20T12:15:20.972Z,95576.69
2022-10-20T12:17:48.410Z,95574.53
2022-10-20T12:20:21.715Z,95568.84
2022-10-20T12:22:49.999Z,95570.47
2022-10-20T12:25:24.259Z,95565.91
2022-10-20T12:28:14.398Z,95559.97
2022-10-20T12:30:43.967Z,95553.50
2022-10-20T12:33:33.912Z,95563.75
2022-10-20T12:39:10.534Z,95568.91
2022-10-20T12:41:41.910Z,95564.84
2022-10-20T12:44:17.349Z,95560.56
2022-10-20T12:46:52.756Z,95561.06
2022-10-20T12:49:23.859Z,95560.53
2022-10-20T12:51:51.976Z,95565.38
2022-10-20T12:54:19.011Z,95574.53
2022-10-20T12:56:46.178Z,95561.88
2022-10-20T12:59:24.034Z,95563.50
2022-10-20T13:02:09.617Z,95566.75
2022-10-20T13:04:56.257Z,95571.31
2022-10-20T13:07:42.062Z,95568.91
2022-10-20T13:10:29.858Z,95572.94
2022-10-20T13:13:06.146Z,95573.75
2022-10-20T13:15:33.399Z,95570.78
2022-10-20T13:18:03.305Z,95565.66
2022-10-20T13:20:30.749Z,95567.53
2022-10-20T13:22:57.789Z,95572.13
2022-10-20T13:25:37.085Z,95562.16
2022-10-20T13:28:14.668Z,95566.47
2022-10-20T13:31:00.043Z,95569.44
2022-10-20T13:34:03.153Z,95570.22
2022-10-20T13:36:34.401Z,95560.00
2022-10-20T13:39:15.379Z,95567.03
2022-10-20T13:42:01.148Z,95564.56
2022-10-20T13:44:51.820Z,95568.09
2022-10-20T13:47:34.102Z,95563.75
2022-10-20T13:50:06.226Z,95570.50
2022-10-20T13:52:35.637Z,95568.59
2022-10-20T13:55:05.183Z,95576.44
2022-10-20T13:57:33.716Z,95567.03
2022-10-20T14:00:04.580Z,95573.19
2022-10-20T14:02:35.157Z,95572.41
2022-10-20T14:05:04.358Z,95567.53
2022-10-20T14:07:41.652Z,95569.97
2022-10-20T14:10:26.421Z,95571.84
2022-10-20T14:12:53.993Z,95566.19
2022-10-20T14:15:31.871Z,95574.81
2022-10-20T14:18:04.097Z,95575.09
2022-10-20T14:20:31.870Z,95571.06
2022-10-20T14:23:00.719Z,95585.63
2022-10-20T14:25:28.056Z,95572.66
2022-10-20T14:27:55.918Z,95574.25
2022-10-20T14:30:24.100Z,95568.09
2022-10-20T14:32:51.425Z,95568.31
2022-10-20T14:35:26.269Z,95568.38
2022-10-20T14:37:59.013Z,95572.34
2022-10-20T14:40:28.852Z,95570.72
2022-10-20T14:42:57.652Z,95566.16
2022-10-20T14:45:25.807Z,95569.16
2022-10-20T14:47:53.289Z,95566.16
2022-10-20T14:50:22.873Z,95571.81
2022-10-20T14:52:53.849Z,95571.78
2022-10-20T14:55:31.463Z,95572.06
2022-10-20T14:57:58.379Z,95572.06
2022-10-20T15:00:32.206Z,95573.69
2022-10-20T15:03:03.126Z,95571.53
2022-10-20T15:05:37.272Z,95576.88
2022-10-20T15:08:16.340Z,95576.34
2022-10-20T15:10:43.582Z,95580.63
2022-10-20T15:13:23.616Z,95582.25
2022-10-20T15:15:53.831Z,95574.41
2022-10-20T15:18:21.075Z,95580.31
2022-10-20T15:20:48.399Z,95582.22
2022-10-20T15:23:17.219Z,95589.44
2022-10-20T15:26:03.156Z,95589.97
2022-10-20T15:28:31.828Z,95587.81
2022-10-20T15:30:59.389Z,95594.78
2022-10-20T15:33:26.874Z,95599.34
2022-10-20T15:35:54.063Z,95598.53
2022-10-20T15:38:20.970Z,95603.91
2022-10-20T15:40:48.072Z,95603.91
2022-10-20T15:43:17.578Z,95605.78
2022-10-20T15:45:47.683Z,95607.03
2022-10-20T15:48:14.876Z,95611.06
2022-10-20T15:50:41.778Z,95612.63
2022-10-20T15:53:10.626Z,95617.44
2022-10-20T15:55:39.361Z,95619.28
2022-10-20T15:58:06.406Z,95621.97
2022-10-20T16:00:33.520Z,95625.63
2022-10-20T16:03:00.438Z,95633.41
2022-10-20T16:05:27.382Z,95637.19
2022-10-20T16:07:54.887Z,95637.72
2022-10-20T16:10:22.615Z,95643.06
2022-10-20T16:12:49.660Z,95643.19
2022-10-20T16:15:17.063Z,95651.22
2022-10-20T16:17:45.355Z,95651.75
2022-10-20T16:20:12.142Z,95660.56
2022-10-20T16:22:39.359Z,95672.13
2022-10-20T16:25:06.455Z,95662.13
2022-10-20T16:27:33.899Z,95665.88
2022-10-20T16:30:01.041Z,95676.34
2022-10-20T16:32:32.982Z,95665.28
2022-10-20T16:35:03.521Z,95680.84
2022-10-20T16:37:30.964Z,95672.19
2022-10-20T16:39:59.882Z,95680.44
2022-10-20T16:42:28.572Z,95682.47
2022-10-20T16:44:55.543Z,95680.69
2022-10-20T16:47:22.662Z,95685.81
2022-10-20T16:49:49.516Z,95684.69
2022-10-20T16:52:16.347Z,95691.94
2022-10-20T16:54:43.090Z,95693.25
2022-10-20T16:57:11.736Z,95681.94
2022-10-20T16:59:38.883Z,95690.53
2022-10-20T17:02:06.590Z,95694.50
2022-10-20T17:04:33.852Z,95700.38
2022-10-20T17:07:00.647Z,95710.22
2022-10-20T17:09:30.603Z,95693.31
2022-10-20T17:11:58.490Z,95710.75
2022-10-20T17:14:25.398Z,95703.19
2022-10-20T17:16:52.162Z,95674.47
2022-10-20T17:19:19.227Z,95700.44
2022-10-20T17:21:46.005Z,95708.19
2022-10-20T17:24:13.367Z,95715.34
2022-10-20T17:26:40.740Z,95719.56
2022-10-20T17:29:09.721Z,95716.28
2022-10-20T17:31:37.949Z,95715.22
2022-10-20T17:34:05.163Z,95711.16
2022-10-20T17:36:32.590Z,95711.41
2022-10-20T17:39:08.776Z,95718.31
2022-10-20T17:41:36.038Z,95722.63
2022-10-20T17:44:04.599Z,95717.25
2022-10-20T17:46:31.956Z,95722.03
2022-10-20T17:48:59.341Z,95725.47
2022-10-20T17:51:28.975Z,95721.66
2022-10-20T17:53:58.818Z,95720.53
2022-10-20T17:56:31.570Z,95723.44
2022-10-20T17:58:59.367Z,95721.28
2022-10-20T18:01:27.829Z,95725.84
2022-10-20T18:03:56.224Z,95727.59
2022-10-20T18:06:25.650Z,95722.97
2022-10-20T18:08:53.775Z,95716.25
2022-10-20T18:11:22.052Z,95721.03
2022-10-20T18:13:48.830Z,95727.22
2022-10-20T18:16:16.619Z,95728.19
2022-10-20T18:18:43.741Z,95732.97
2022-10-20T18:21:11.914Z,95738.50
2022-10-20T18:23:41.209Z,95736.06
2022-10-20T18:26:18.719Z,95735.75
2022-10-20T18:28:48.371Z,95726.06
2022-10-20T18:31:18.139Z,95732.47
2022-10-20T18:33:46.095Z,95738.81
2022-10-20T18:36:13.976Z,95735.06
2022-10-20T18:38:41.778Z,95743.34
2022-10-20T18:41:12.135Z,95739.28
2022-10-20T18:43:39.191Z,95746.75
2022-10-20T18:46:07.198Z,95739.41
2022-10-20T18:48:37.009Z,95748.53
2022-10-20T18:51:04.963Z,95742.84
2022-10-20T18:53:32.174Z,95749.50
2022-10-20T18:56:07.851Z,95746.94
2022-10-20T18:58:38.143Z,95746.88
2022-10-20T19:01:05.234Z,95743.63
2022-10-20T19:03:33.333Z,95748.66
2022-10-20T19:06:03.157Z,95748.88
2022-10-20T19:08:30.538Z,95751.78
2022-10-20T19:10:57.805Z,95745.88
2022-10-20T19:13:25.492Z,95757.06
2022-10-20T19:15:52.680Z,95765.34
2022-10-20T19:18:20.096Z,95760.69
2022-10-20T19:21:02.198Z,95763.84
2022-10-20T19:23:32.340Z,95772.03
2022-10-20T19:26:05.415Z,95773.09
2022-10-20T19:28:33.590Z,95778.91
2022-10-20T19:31:00.442Z,95779.13
2022-10-20T19:33:27.579Z,95788.47
2022-10-20T19:35:54.514Z,95787.09
2022-10-20T19:38:21.268Z,95792.69
2022-10-20T19:40:48.110Z,95787.44
2022-10-20T19:43:14.990Z,95795.38
2022-10-20T19:45:45.296Z,95792.59
2022-10-20T19:48:14.584Z,95801.09
2022-10-20T19:50:41.308Z,95802.94
2022-10-20T19:53:08.176Z,95802.63
2022-10-20T19:55:36.708Z,95808.91
2022-10-20T19:58:04.058Z,95805.63
2022-10-20T20:00:30.842Z,95802.16
2022-10-20T20:02:57.759Z,95805.88
2022-10-20T20:05:24.545Z,95806.91
2022-10-20T20:07:51.292Z,95811.94
2022-10-20T20:10:18.071Z,95798.81
2022-10-20T20:12:45.170Z,95803.34
2022-10-20T20:15:12.059Z,95809.38
2022-10-20T20:17:39.265Z,95805.31
2022-10-20T20:20:07.003Z,95807.41
2022-10-20T20:22:33.764Z,95798.00
2022-10-20T20:25:00.583Z,95803.59
2022-10-20T20:27:27.428Z,95805.09
2022-10-20T20:29:54.382Z,95806.34
2022-10-20T20:32:21.215Z,95805.19
2022-10-20T20:34:48.347Z,95805.66
2022-10-20T20:37:15.157Z,95806.91
2022-10-20T20:39:41.961Z,95807.16
2022-10-20T20:42:09.027Z,95811.31
2022-10-20T20:44:35.828Z,95821.69
2022-10-20T20:47:02.768Z,95817.63
2022-10-20T20:49:29.824Z,95819.91
2022-10-20T20:51:56.624Z,95814.56
2022-10-20T20:54:23.440Z,95821.09
2022-10-20T20:56:50.507Z,95821.09
2022-10-20T20:59:17.233Z,95825.03
2022-10-20T21:01:45.171Z,95815.38
2022-10-20T21:04:12.913Z,95810.84
2022-10-20T21:07:00.781Z,95818.28
2022-10-20T21:09:27.415Z,95816.28
2022-10-20T21:11:54.215Z,95818.75
2022-10-20T21:14:21.202Z,95815.97
2022-10-20T21:16:48.282Z,95815.38
2022-10-20T21:19:15.385Z,95813.75
2022-10-20T21:21:44.393Z,95811.06
2022-10-20T21:24:12.644Z,95816.03
2022-10-20T21:26:39.802Z,95817.53
2022-10-20T21:29:06.729Z,95812.91
2022-10-20T21:31:33.622Z,95810.91
2022-10-20T21:34:01.907Z,95809.72
2022-10-20T21:36:29.362Z,95807.75
2022-10-20T21:38:56.180Z,95807.16
2022-10-20T21:41:24.388Z,95807.63
2022-10-20T21:43:52.215Z,95818.97
2022-10-20T21:46:29.600Z,95819.91
2022-10-20T21:49:01.289Z,95830.88
2022-10-20T21:51:29.965Z,95828.44
2022-10-20T21:53:57.535Z,95826.22
2022-10-20T21:56:24.864Z,95829.34
2022-10-20T21:58:52.232Z,95831.06
2022-10-20T22:01:20.345Z,95832.56
2022-10-20T22:03:47.981Z,95835.25
2022-10-20T22:06:16.683Z,95838.78
2022-10-20T22:08:45.413Z,95848.06
2022-10-20T22:11:20.012Z,95849.91
2022-10-20T22:13:47.705Z,95854.97
2022-10-20T22:16:16.184Z,95862.59
2022-10-20T22:18:43.290Z,95856.09
2022-10-20T22:21:13.900Z,95866.16
2022-10-20T22:23:41.404Z,95866.81
2022-10-20T22:26:08.856Z,95869.81
2022-10-20T22:28:35.599Z,95874.75
2022-10-20T22:31:02.422Z,95870.63
2022-10-20T22:33:29.429Z,95874.78
2022-10-20T22:35:56.219Z,95877.44
2022-10-20T22:38:23.143Z,95871.38
2022-10-20T22:40:50.088Z,95876.31
2022-10-20T22:43:16.896Z,95867.16
2022-10-20T22:45:43.887Z,95869.06
2022-10-20T22:48:10.596Z,95874.81
2022-10-20T22:50:37.471Z,95868.88
2022-10-20T22:53:04.211Z,95870.97
2022-10-20T22:55:31.063Z,95872.81
2022-10-20T23:00:25.771Z,95872.06
2022-10-20T23:02:52.630Z,95865.69
2022-10-20T23:05:19.575Z,95869.59
2022-10-20T23:07:46.319Z,95867.97
2022-10-20T23:10:13.313Z,95877.69
2022-10-20T23:12:40.263Z,95880.78
2022-10-20T23:15:07.511Z,95878.53
2022-10-20T23:17:34.901Z,95879.19
2022-10-20T23:20:02.016Z,95889.25
2022-10-20T23:22:29.651Z,95882.50
2022-10-20T23:24:56.511Z,95874.72
2022-10-20T23:27:23.536Z,95882.53
2022-10-20T23:29:50.272Z,95882.34
2022-10-20T23:32:17.277Z,95874.94
2022-10-20T23:34:44.019Z,95876.78
2022-10-20T23:37:11.291Z,95885.22
2022-10-20T23:39:38.075Z,95886.25
2022-10-20T23:42:07.308Z,95887.72
2022-10-20T23:44:34.391Z,95888.97
2022-10-20T23:47:01.487Z,95888.56
2022-10-20T23:49:28.314Z,95899.66
2022-10-20T23:51:55.266Z,95892.94
2022-10-20T23:54:22.370Z,95886.41
2022-10-20T23:56:49.111Z,95883.94
2022-10-20T23:59:16.018Z,95884.97
